Terminal Aerodrome Forecast
Issued by NWS Bismarck, ND

Home | Current Version | Previous Version | Graphics & Text | Print | Product List | Glossary On
Versions: 1 2 3 4 5 6 7 8 9 10 11 12 13 14 15 16
365
FTUS43 KBIS 032320
TAFISN
TAF
KISN 032320Z 0400/0424 02009G18KT P6SM FEW250
     FM040200 04005KT P6SM FEW250
     FM040600 12004KT P6SM SKC
     FM041300 18005KT P6SM SKC
     FM041800 21010KT P6SM SKC=

USA.gov is the U.S. government's official web portal to all federal, state and local government web resources and services.